createdAt,value
2023-04-01T00:01:21.186Z,10.00
2023-04-01T00:03:51.583Z,10.00
2023-04-01T00:06:21.270Z,10.00
2023-04-01T00:08:50.009Z,10.00
2023-04-01T00:11:20.515Z,10.00
2023-04-01T00:13:50.113Z,10.00
2023-04-01T00:16:22.179Z,9.90
2023-04-01T00:18:53.273Z,9.90
2023-04-01T00:21:23.061Z,9.90
2023-04-01T00:23:52.489Z,9.80
2023-04-01T00:26:23.005Z,9.80
2023-04-01T00:28:52.393Z,9.80
2023-04-01T00:31:21.678Z,9.80
2023-04-01T00:33:51.937Z,9.80
2023-04-01T00:36:23.134Z,9.80
2023-04-01T00:38:52.981Z,9.80
2023-04-01T00:41:22.931Z,9.80
2023-04-01T00:43:53.688Z,9.70
2023-04-01T00:46:22.556Z,9.60
2023-04-01T00:48:56.662Z,9.70
2023-04-01T00:51:28.603Z,9.70
2023-04-01T00:53:59.508Z,9.70
2023-04-01T00:56:33.601Z,9.70
2023-04-01T00:59:05.261Z,9.60
2023-04-01T01:01:34.862Z,9.60
2023-04-01T01:04:05.600Z,9.70
2023-04-01T01:06:46.682Z,9.60
2023-04-01T01:09:36.953Z,9.60
2023-04-01T01:12:12.654Z,9.60
2023-04-01T01:14:57.260Z,9.50
2023-04-01T01:17:36.319Z,9.50
2023-04-01T01:21:00.099Z,9.60
2023-04-01T01:24:07.977Z,9.60
2023-04-01T01:26:54.556Z,9.60
2023-04-01T01:30:14.282Z,9.70
2023-04-01T01:33:02.410Z,9.70
2023-04-01T01:35:35.802Z,9.70
2023-04-01T01:38:08.178Z,9.70
2023-04-01T01:40:39.369Z,9.70
2023-04-01T01:43:10.975Z,9.70
2023-04-01T01:45:44.088Z,9.70
2023-04-01T01:48:13.678Z,8.70
2023-04-01T01:50:45.436Z,9.60
2023-04-01T01:53:15.249Z,9.70
2023-04-01T01:55:46.718Z,9.60
2023-04-01T01:58:18.959Z,9.60
2023-04-01T02:00:51.851Z,9.60
2023-04-01T02:03:26.054Z,9.60
2023-04-01T02:05:59.756Z,9.60
2023-04-01T02:08:33.314Z,9.70
2023-04-01T02:11:04.374Z,9.60
2023-04-01T02:13:36.808Z,9.70
2023-04-01T02:16:11.430Z,9.70
2023-04-01T02:18:41.822Z,9.60
2023-04-01T02:21:12.736Z,9.70
2023-04-01T02:23:42.876Z,9.70
2023-04-01T02:26:14.945Z,9.70
2023-04-01T02:28:46.123Z,9.70
2023-04-01T02:31:19.062Z,9.70
2023-04-01T02:33:48.625Z,9.70
2023-04-01T02:36:19.628Z,9.70
2023-04-01T02:38:50.542Z,9.80
2023-04-01T02:41:19.230Z,9.70
2023-04-01T02:43:48.458Z,9.70
2023-04-01T02:46:17.452Z,9.40
2023-04-01T02:48:46.418Z,9.70
2023-04-01T02:51:18.315Z,9.70
2023-04-01T02:53:48.950Z,9.70
2023-04-01T02:56:18.621Z,9.60
2023-04-01T02:58:47.307Z,9.60
2023-04-01T03:01:16.136Z,9.60
2023-04-01T03:03:44.766Z,9.60
2023-04-01T03:06:15.185Z,9.60
2023-04-01T03:08:44.106Z,9.50
2023-04-01T03:11:15.335Z,9.60
2023-04-01T03:13:44.625Z,9.60
2023-04-01T03:16:15.538Z,9.60
2023-04-01T03:18:44.776Z,9.60
2023-04-01T03:21:19.816Z,9.60
2023-04-01T03:23:49.693Z,9.70
2023-04-01T03:26:21.168Z,9.70
2023-04-01T03:28:51.205Z,9.70
2023-04-01T03:31:22.277Z,9.70
2023-04-01T03:33:52.605Z,9.70
2023-04-01T03:36:21.670Z,9.70
2023-04-01T03:38:50.840Z,9.80
2023-04-01T03:41:21.952Z,9.70
2023-04-01T03:43:50.942Z,9.70
2023-04-01T03:46:20.613Z,9.00
2023-04-01T03:48:49.604Z,9.60
2023-04-01T03:51:18.462Z,9.60
2023-04-01T03:53:48.066Z,9.60
2023-04-01T03:56:16.955Z,9.60
2023-04-01T03:58:48.566Z,9.60
2023-04-01T04:01:18.442Z,9.60
2023-04-01T04:03:47.453Z,9.40
2023-04-01T04:06:17.401Z,9.60
2023-04-01T04:08:47.009Z,9.50
2023-04-01T04:11:16.284Z,9.50
2023-04-01T04:13:49.025Z,9.50
2023-04-01T04:16:20.784Z,9.50
2023-04-01T04:18:50.158Z,9.50
2023-04-01T04:21:18.964Z,9.40
2023-04-01T04:23:47.714Z,9.40
2023-04-01T04:26:17.452Z,9.40
2023-04-01T04:28:47.697Z,9.40
2023-04-01T04:31:21.908Z,9.40
2023-04-01T04:33:51.188Z,9.40
2023-04-01T04:36:23.309Z,9.40
2023-04-01T04:38:51.923Z,9.30
2023-04-01T04:41:23.223Z,9.20
2023-04-01T04:43:55.471Z,9.30
2023-04-01T04:46:25.158Z,9.20
2023-04-01T04:48:53.746Z,9.20
2023-04-01T04:51:23.661Z,9.10
2023-04-01T04:53:53.172Z,9.30
2023-04-01T04:56:22.575Z,9.20
2023-04-01T04:58:52.973Z,9.30
2023-04-01T05:01:22.224Z,9.30
2023-04-01T05:03:51.156Z,9.20
2023-04-01T05:06:21.653Z,9.20
2023-04-01T05:08:51.934Z,9.20
2023-04-01T05:11:21.737Z,9.20
2023-04-01T05:13:51.410Z,9.20
2023-04-01T05:16:22.854Z,9.20
2023-04-01T05:18:51.404Z,9.20
2023-04-01T05:21:21.471Z,9.20
2023-04-01T05:23:52.592Z,9.20
2023-04-01T05:26:20.924Z,9.30
2023-04-01T05:28:51.323Z,9.30
2023-04-01T05:31:21.198Z,9.40
2023-04-01T05:33:49.682Z,9.40
2023-04-01T05:36:18.955Z,9.40
2023-04-01T05:38:48.432Z,9.40
2023-04-01T05:41:17.489Z,9.40
2023-04-01T05:43:46.022Z,9.50
2023-04-01T05:46:14.423Z,9.50
2023-04-01T05:48:44.723Z,9.50
2023-04-01T05:51:16.205Z,9.50
2023-04-01T05:53:44.860Z,9.50
2023-04-01T05:56:13.253Z,9.40
2023-04-01T05:58:41.972Z,9.50
2023-04-01T06:01:15.845Z,9.40
2023-04-01T06:03:46.296Z,9.40
2023-04-01T06:06:17.270Z,9.50
2023-04-01T06:08:46.067Z,9.40
2023-04-01T06:11:29.257Z,9.40
2023-04-01T06:14:16.771Z,9.50
2023-04-01T06:16:57.176Z,9.50
2023-04-01T06:19:43.089Z,9.60
2023-04-01T06:22:34.982Z,9.70
2023-04-01T06:25:33.248Z,9.70
2023-04-01T06:28:21.009Z,9.70
2023-04-01T06:30:56.481Z,9.80
2023-04-01T06:33:44.949Z,9.80
2023-04-01T06:36:45.620Z,9.80
2023-04-01T06:39:46.495Z,9.90
2023-04-01T06:42:31.719Z,9.80
2023-04-01T06:45:09.376Z,9.70
2023-04-01T06:47:52.899Z,9.70
2023-04-01T06:50:27.695Z,9.70
2023-04-01T06:53:07.750Z,9.80
2023-04-01T06:55:42.397Z,9.80
2023-04-01T06:58:21.116Z,9.70
2023-04-01T07:00:53.116Z,9.90
2023-04-01T07:03:30.330Z,10.30
2023-04-01T07:06:04.168Z,10.80
2023-04-01T07:08:38.652Z,11.10
2023-04-01T07:11:08.370Z,11.30
2023-04-01T07:13:43.002Z,11.40
2023-04-01T07:16:18.082Z,11.70
2023-04-01T07:18:52.816Z,12.10
2023-04-01T07:21:29.209Z,12.40
2023-04-01T07:24:07.154Z,13.20
2023-04-01T07:26:35.730Z,13.30
2023-04-01T07:29:09.127Z,13.00
2023-04-01T07:31:54.080Z,12.40
2023-04-01T07:34:27.475Z,12.20
2023-04-01T07:37:02.623Z,11.90
2023-04-01T07:39:42.497Z,12.00
2023-04-01T07:42:18.353Z,12.00
2023-04-01T07:44:54.729Z,12.60
2023-04-01T07:47:38.167Z,12.90
2023-04-01T07:50:19.830Z,12.90
2023-04-01T07:52:52.587Z,13.70
2023-04-01T07:55:27.914Z,14.70
2023-04-01T07:58:04.621Z,15.10
2023-04-01T08:00:42.385Z,15.00
2023-04-01T08:03:32.424Z,14.80
2023-04-01T08:06:05.981Z,14.10
2023-04-01T08:08:43.520Z,13.40
2023-04-01T08:11:24.585Z,12.90
2023-04-01T08:14:00.921Z,12.40
2023-04-01T08:16:36.728Z,12.00
2023-04-01T08:19:15.645Z,11.90
2023-04-01T08:21:49.466Z,11.90
2023-04-01T08:24:31.742Z,11.80
2023-04-01T08:27:15.346Z,11.70
2023-04-01T08:29:48.514Z,11.60
2023-04-01T08:32:22.081Z,11.40
2023-04-01T08:34:59.863Z,11.40
2023-04-01T08:37:34.620Z,11.30
2023-04-01T08:40:14.706Z,11.30
2023-04-01T08:42:56.717Z,11.30
2023-04-01T08:45:35.090Z,11.20
2023-04-01T08:48:30.484Z,11.20
2023-04-01T08:51:29.736Z,11.30
2023-04-01T08:54:32.417Z,11.20
2023-04-01T08:57:09.072Z,11.20
2023-04-01T09:00:01.134Z,11.20
2023-04-01T09:02:53.612Z,11.20
2023-04-01T09:05:37.224Z,11.10
2023-04-01T09:08:19.703Z,11.10
2023-04-01T09:10:58.616Z,11.20
2023-04-01T09:13:40.536Z,11.10
2023-04-01T09:16:18.032Z,11.20
2023-04-01T09:19:02.075Z,11.00
2023-04-01T09:22:01.459Z,10.80
2023-04-01T09:24:49.414Z,10.80
2023-04-01T09:27:30.178Z,10.80
2023-04-01T09:30:27.137Z,10.80
2023-04-01T09:33:28.791Z,10.80
2023-04-01T09:36:12.627Z,10.80
2023-04-01T09:38:54.930Z,10.70
2023-04-01T09:41:31.837Z,10.80
2023-04-01T09:44:05.923Z,10.80
2023-04-01T09:46:49.384Z,10.90
2023-04-01T09:49:53.968Z,10.90
2023-04-01T09:52:33.522Z,10.90
2023-04-01T09:55:16.880Z,10.90
2023-04-01T09:58:25.757Z,10.90
2023-04-01T10:01:33.556Z,10.80
2023-04-01T10:04:49.866Z,10.80
2023-04-01T10:08:03.722Z,10.70
2023-04-01T10:11:06.483Z,10.80
2023-04-01T10:14:13.521Z,10.80
2023-04-01T10:17:01.903Z,10.90
2023-04-01T10:20:05.031Z,11.00
2023-04-01T10:23:10.269Z,11.00
2023-04-01T10:25:59.746Z,11.00
2023-04-01T10:28:49.538Z,10.80
2023-04-01T10:31:51.968Z,10.80
2023-04-01T10:34:45.669Z,10.90
2023-04-01T10:37:26.594Z,10.90
2023-04-01T10:40:29.246Z,10.90
2023-04-01T10:43:30.055Z,10.90
2023-04-01T10:46:38.371Z,10.90
2023-04-01T10:49:43.659Z,10.90
2023-04-01T10:52:39.085Z,10.90
2023-04-01T10:55:39.537Z,11.00
2023-04-01T10:58:49.209Z,11.10
2023-04-01T11:02:12.047Z,11.00
2023-04-01T11:05:23.350Z,11.10
2023-04-01T11:08:25.174Z,11.00
2023-04-01T11:11:29.067Z,10.90
2023-04-01T11:14:34.572Z,10.80
2023-04-01T11:17:41.168Z,10.90
2023-04-01T11:20:51.418Z,11.00
2023-04-01T11:24:02.174Z,10.90
2023-04-01T11:26:42.450Z,11.00
2023-04-01T11:29:38.935Z,11.10
2023-04-01T11:32:22.761Z,11.30
2023-04-01T11:35:04.288Z,11.40
2023-04-01T11:37:45.269Z,11.40
2023-04-01T11:40:30.408Z,11.50
2023-04-01T11:43:03.764Z,11.60
2023-04-01T11:45:38.768Z,11.60
2023-04-01T11:48:29.161Z,11.70
2023-04-01T11:51:34.192Z,11.70
2023-04-01T11:54:12.989Z,11.70
2023-04-01T11:57:02.138Z,11.80
2023-04-01T12:00:01.637Z,11.80
2023-04-01T12:02:45.237Z,11.80
2023-04-01T12:05:39.803Z,11.90
2023-04-01T12:08:20.232Z,12.00
2023-04-01T12:10:57.555Z,12.00
2023-04-01T12:13:40.887Z,12.10
2023-04-01T12:16:26.836Z,12.20
2023-04-01T12:19:00.691Z,12.40
2023-04-01T12:21:38.345Z,12.50
2023-04-01T12:24:35.920Z,12.50
2023-04-01T12:27:32.388Z,12.60
2023-04-01T12:30:34.530Z,12.60
2023-04-01T12:33:31.790Z,12.70
2023-04-01T12:36:12.113Z,12.80
2023-04-01T12:38:53.986Z,12.80
2023-04-01T12:41:32.887Z,12.80
2023-04-01T12:44:28.087Z,12.50
2023-04-01T12:47:25.694Z,12.80
2023-04-01T12:50:05.169Z,12.70
2023-04-01T12:52:48.501Z,12.30
2023-04-01T12:55:38.874Z,12.10
2023-04-01T12:58:41.194Z,12.10
2023-04-01T13:01:33.404Z,12.10
2023-04-01T13:04:35.452Z,12.10
2023-04-01T13:07:21.457Z,12.10
2023-04-01T13:09:59.807Z,12.20
2023-04-01T13:12:56.299Z,12.10
2023-04-01T13:15:30.762Z,12.10
2023-04-01T13:18:10.052Z,12.10
2023-04-01T13:20:49.508Z,12.10
2023-04-01T13:23:30.665Z,12.20
2023-04-01T13:26:14.605Z,12.20
2023-04-01T13:28:55.083Z,12.30
2023-04-01T13:31:49.987Z,12.40
2023-04-01T13:34:33.306Z,12.50
2023-04-01T13:37:14.381Z,12.50
2023-04-01T13:40:05.170Z,12.50
2023-04-01T13:42:42.218Z,12.60
2023-04-01T13:45:17.827Z,12.40
2023-04-01T13:48:22.646Z,12.40
2023-04-01T13:51:20.194Z,12.40
2023-04-01T13:54:20.323Z,12.40
2023-04-01T13:56:59.519Z,12.40
2023-04-01T14:00:01.219Z,12.40
2023-04-01T14:02:49.558Z,12.30
2023-04-01T14:05:47.799Z,12.20
2023-04-01T14:08:31.902Z,12.00
2023-04-01T14:11:13.188Z,12.30
2023-04-01T14:13:54.067Z,12.30
2023-04-01T14:17:04.086Z,12.40
2023-04-01T14:19:58.058Z,12.40
2023-04-01T14:22:37.305Z,12.40
2023-04-01T14:25:41.585Z,12.40
2023-04-01T14:28:21.249Z,12.50
2023-04-01T14:31:06.047Z,12.40
2023-04-01T14:33:45.503Z,12.40
2023-04-01T14:36:36.512Z,12.30
2023-04-01T14:39:22.375Z,12.40
2023-04-01T14:42:08.919Z,12.30
2023-04-01T14:45:22.420Z,12.30
2023-04-01T14:47:55.064Z,12.30
2023-04-01T14:50:27.580Z,12.40
2023-04-01T14:53:14.296Z,12.50
2023-04-01T14:55:52.456Z,12.40
2023-04-01T14:58:23.100Z,12.30
2023-04-01T15:01:00.288Z,12.20
2023-04-01T15:03:35.031Z,12.30
2023-04-01T15:06:36.385Z,12.20
2023-04-01T15:09:13.777Z,12.30
2023-04-01T15:11:54.038Z,12.30
2023-04-01T15:14:45.116Z,12.40
2023-04-01T15:17:28.198Z,12.50
2023-04-01T15:20:26.707Z,12.60
2023-04-01T15:23:16.070Z,12.60
2023-04-01T15:26:13.922Z,12.60
2023-04-01T15:28:50.049Z,12.60
2023-04-01T15:31:25.208Z,12.50
2023-04-01T15:34:08.011Z,12.50
2023-04-01T15:36:43.546Z,12.40
2023-04-01T15:39:20.001Z,12.50
2023-04-01T15:42:06.330Z,12.50
2023-04-01T15:45:00.164Z,12.40
2023-04-01T15:47:39.667Z,12.40
2023-04-01T15:50:50.103Z,12.20
2023-04-01T15:53:36.800Z,12.10
2023-04-01T15:56:18.585Z,12.00
2023-04-01T15:58:56.071Z,11.80
2023-04-01T16:01:37.171Z,11.70
2023-04-01T16:04:36.221Z,11.70
2023-04-01T16:07:13.438Z,11.60
2023-04-01T16:10:10.193Z,11.30
2023-04-01T16:12:51.353Z,11.20
2023-04-01T16:15:30.821Z,11.10
2023-04-01T16:18:23.543Z,11.10
2023-04-01T16:20:58.142Z,11.00
2023-04-01T16:23:35.965Z,11.00
2023-04-01T16:26:11.460Z,11.00
2023-04-01T16:28:50.428Z,10.30
2023-04-01T16:31:33.661Z,10.90
2023-04-01T16:34:13.179Z,10.80
2023-04-01T16:36:47.240Z,10.90
2023-04-01T16:39:32.704Z,10.80
2023-04-01T16:42:31.072Z,10.80
2023-04-01T16:45:05.388Z,10.90
2023-04-01T16:47:43.173Z,10.90
2023-04-01T16:50:21.368Z,10.70
2023-04-01T16:53:04.936Z,10.70
2023-04-01T16:55:52.124Z,10.70
2023-04-01T16:58:27.443Z,10.70
2023-04-01T17:01:02.887Z,10.80
2023-04-01T17:03:37.558Z,10.80
2023-04-01T17:06:32.140Z,10.80
2023-04-01T17:09:17.316Z,10.80
2023-04-01T17:11:56.868Z,10.80
2023-04-01T17:14:31.877Z,10.80
2023-04-01T17:17:28.435Z,10.70
2023-04-01T17:20:17.585Z,10.60
2023-04-01T17:22:54.461Z,10.60
2023-04-01T17:25:46.591Z,10.70
2023-04-01T17:28:27.775Z,10.70
2023-04-01T17:31:04.702Z,10.60
2023-04-01T17:33:53.960Z,10.60
2023-04-01T17:36:39.583Z,10.60
2023-04-01T17:39:42.795Z,10.50
2023-04-01T17:42:17.216Z,10.50
2023-04-01T17:44:56.373Z,10.50
2023-04-01T17:48:04.625Z,10.50
2023-04-01T17:50:49.237Z,10.50
2023-04-01T17:53:29.898Z,10.40
2023-04-01T17:56:13.952Z,10.30
2023-04-01T17:58:48.674Z,10.30
2023-04-01T18:01:38.199Z,10.20
2023-04-01T18:04:31.728Z,10.20
2023-04-01T18:07:23.200Z,10.10
2023-04-01T18:10:07.277Z,10.10
2023-04-01T18:12:43.129Z,10.10
2023-04-01T18:15:24.619Z,10.10
2023-04-01T18:18:08.516Z,10.00
2023-04-01T18:20:45.843Z,10.00
2023-04-01T18:23:25.896Z,9.90
2023-04-01T18:26:08.681Z,9.90
2023-04-01T18:28:41.104Z,9.80
2023-04-01T18:31:16.337Z,9.80
2023-04-01T18:33:53.799Z,9.80
2023-04-01T18:36:28.324Z,9.80
2023-04-01T18:39:03.780Z,9.90
2023-04-01T18:41:45.917Z,9.80
2023-04-01T18:44:30.764Z,9.80
2023-04-01T18:47:11.007Z,9.70
2023-04-01T18:49:47.574Z,9.70
2023-04-01T18:52:23.417Z,9.60
2023-04-01T18:55:32.451Z,9.60
2023-04-01T18:58:20.900Z,9.50
2023-04-01T19:00:59.246Z,9.50
2023-04-01T19:03:36.450Z,9.40
2023-04-01T19:06:17.990Z,9.30
2023-04-01T19:08:48.412Z,9.40
2023-04-01T19:11:28.643Z,9.30
2023-04-01T19:14:13.139Z,9.30
2023-04-01T19:16:52.986Z,9.20
2023-04-01T19:19:38.140Z,9.10
2023-04-01T19:22:23.085Z,9.20
2023-04-01T19:25:26.398Z,9.10
2023-04-01T19:27:58.988Z,9.10
2023-04-01T19:30:39.845Z,9.00
2023-04-01T19:33:27.375Z,9.00
2023-04-01T19:36:06.429Z,9.10
2023-04-01T19:38:43.595Z,9.10
2023-04-01T19:41:31.448Z,9.00
2023-04-01T19:44:15.280Z,9.00
2023-04-01T19:46:49.199Z,8.90
2023-04-01T19:49:32.189Z,8.90
2023-04-01T19:52:06.655Z,8.90
2023-04-01T19:54:42.823Z,7.60
2023-04-01T19:57:21.969Z,9.00
2023-04-01T19:59:58.042Z,8.90
2023-04-01T20:02:56.853Z,8.90
2023-04-01T20:05:44.677Z,8.80
2023-04-01T20:08:25.339Z,8.80
2023-04-01T20:11:04.717Z,8.80
2023-04-01T20:13:47.519Z,8.80
2023-04-01T20:16:19.938Z,8.80
2023-04-01T20:18:55.244Z,8.90
2023-04-01T20:21:44.066Z,8.80
2023-04-01T20:24:23.106Z,8.70
2023-04-01T20:26:56.294Z,8.80
2023-04-01T20:29:42.391Z,8.80
2023-04-01T20:32:36.585Z,8.80
2023-04-01T20:35:29.445Z,8.70
2023-04-01T20:38:08.859Z,8.70
2023-04-01T20:40:40.209Z,8.70
2023-04-01T20:43:27.939Z,7.60
2023-04-01T20:46:01.708Z,8.60
2023-04-01T20:48:55.425Z,8.60
2023-04-01T20:51:30.838Z,8.60
2023-04-01T20:54:19.100Z,8.60
2023-04-01T20:56:58.859Z,8.60
2023-04-01T20:59:45.556Z,8.50
2023-04-01T21:02:24.632Z,8.60
2023-04-01T21:05:20.709Z,8.60
2023-04-01T21:07:58.296Z,8.60
2023-04-01T21:10:45.215Z,8.50
2023-04-01T21:13:28.854Z,8.50
2023-04-01T21:16:15.874Z,8.60
2023-04-01T21:19:13.397Z,8.60
2023-04-01T21:21:58.043Z,8.60
2023-04-01T21:25:08.037Z,8.50
2023-04-01T21:27:58.948Z,8.70
2023-04-01T21:30:45.463Z,8.60
2023-04-01T21:33:37.048Z,8.60
2023-04-01T21:36:17.475Z,8.60
2023-04-01T21:38:54.515Z,8.50
2023-04-01T21:41:37.843Z,8.50
2023-04-01T21:44:42.075Z,8.50
2023-04-01T21:47:49.131Z,8.40
2023-04-01T21:50:44.131Z,8.50
2023-04-01T21:53:51.019Z,8.50
2023-04-01T21:57:02.230Z,8.50
2023-04-01T22:00:05.701Z,8.50
2023-04-01T22:03:26.747Z,7.20
2023-04-01T22:06:11.585Z,7.70
2023-04-01T22:08:53.794Z,8.40
2023-04-01T22:11:35.518Z,8.40
2023-04-01T22:14:11.121Z,8.40
2023-04-01T22:16:47.661Z,8.50
2023-04-01T22:19:23.327Z,8.50
2023-04-01T22:22:02.519Z,8.50
2023-04-01T22:24:43.688Z,8.50
2023-04-01T22:27:23.402Z,8.60
2023-04-01T22:30:04.475Z,7.80
2023-04-01T22:32:46.066Z,8.60
2023-04-01T22:35:32.800Z,8.50
2023-04-01T22:38:12.104Z,8.60
2023-04-01T22:40:47.798Z,8.60
2023-04-01T22:43:23.921Z,8.50
2023-04-01T22:46:12.660Z,8.60
2023-04-01T22:48:49.229Z,8.60
2023-04-01T22:51:21.704Z,8.60
2023-04-01T22:54:04.704Z,8.50
2023-04-01T22:56:39.130Z,8.50
2023-04-01T22:59:14.745Z,8.40
2023-04-01T23:01:49.753Z,8.10
2023-04-01T23:04:26.162Z,8.30
2023-04-01T23:07:00.585Z,8.30
2023-04-01T23:09:30.702Z,8.40
2023-04-01T23:12:04.148Z,8.40
2023-04-01T23:14:55.958Z,8.40
2023-04-01T23:17:41.691Z,8.30
2023-04-01T23:20:31.937Z,8.30
2023-04-01T23:23:21.819Z,8.30
2023-04-01T23:26:01.414Z,8.30
2023-04-01T23:28:50.182Z,7.60
2023-04-01T23:31:49.590Z,8.30
2023-04-01T23:34:26.896Z,8.30
2023-04-01T23:36:59.650Z,8.30
2023-04-01T23:39:32.260Z,8.40
2023-04-01T23:42:05.849Z,8.30
2023-04-01T23:44:35.975Z,8.40
2023-04-01T23:47:06.198Z,8.40
2023-04-01T23:49:39.810Z,8.50
2023-04-01T23:52:24.121Z,8.50
2023-04-01T23:54:59.704Z,8.50
2023-04-01T23:57:32.140Z,8.50
